sensor_id;sensor_type;location;lat;lon;timestamp;temperature;humidity
6792;DHT22;3433;48.730;9.108;2023-05-01T00:02:11;11.60;99.60
6792;DHT22;3433;48.730;9.108;2023-05-01T00:04:38;11.60;99.70
6792;DHT22;3433;48.730;9.108;2023-05-01T00:07:05;11.50;99.70
6792;DHT22;3433;48.730;9.108;2023-05-01T00:09:33;11.50;99.60
6792;DHT22;3433;48.730;9.108;2023-05-01T00:12:00;11.50;99.70
6792;DHT22;3433;48.730;9.108;2023-05-01T00:14:28;11.50;99.80
6792;DHT22;3433;48.730;9.108;2023-05-01T00:16:55;11.50;99.80
6792;DHT22;3433;48.730;9.108;2023-05-01T00:19:22;11.40;99.80
6792;DHT22;3433;48.730;9.108;2023-05-01T00:21:49;11.40;99.90
6792;DHT22;3433;48.730;9.108;2023-05-01T00:24:17;11.40;99.90
6792;DHT22;3433;48.730;9.108;2023-05-01T00:26:45;11.40;99.90
6792;DHT22;3433;48.730;9.108;2023-05-01T00:29:12;11.40;99.80
6792;DHT22;3433;48.730;9.108;2023-05-01T00:31:39;11.40;99.90
6792;DHT22;3433;48.730;9.108;2023-05-01T00:34:07;11.30;99.80
6792;DHT22;3433;48.730;9.108;2023-05-01T00:36:34;11.40;99.90
6792;DHT22;3433;48.730;9.108;2023-05-01T00:39:01;11.30;99.80
6792;DHT22;3433;48.730;9.108;2023-05-01T00:41:27;11.30;99.90
6792;DHT22;3433;48.730;9.108;2023-05-01T00:43:56;11.30;99.90
6792;DHT22;3433;48.730;9.108;2023-05-01T00:46:23;11.30;99.90
6792;DHT22;3433;48.730;9.108;2023-05-01T00:48:51;11.20;99.90
6792;DHT22;3433;48.730;9.108;2023-05-01T00:51:19;11.30;99.90
6792;DHT22;3433;48.730;9.108;2023-05-01T00:53:47;11.20;99.90
6792;DHT22;3433;48.730;9.108;2023-05-01T00:56:14;11.20;99.90
6792;DHT22;3433;48.730;9.108;2023-05-01T00:58:41;11.20;99.90
6792;DHT22;3433;48.730;9.108;2023-05-01T01:01:11;11.20;99.90
6792;DHT22;3433;48.730;9.108;2023-05-01T01:03:38;11.20;99.90
6792;DHT22;3433;48.730;9.108;2023-05-01T01:06:09;11.20;99.90
6792;DHT22;3433;48.730;9.108;2023-05-01T01:08:42;11.20;99.90
6792;DHT22;3433;48.730;9.108;2023-05-01T01:11:16;11.20;99.90
6792;DHT22;3433;48.730;9.108;2023-05-01T01:13:51;11.20;99.90
6792;DHT22;3433;48.730;9.108;2023-05-01T01:16:27;11.20;99.90
6792;DHT22;3433;48.730;9.108;2023-05-01T01:19:03;11.20;99.90
6792;DHT22;3433;48.730;9.108;2023-05-01T01:21:35;11.20;99.90
6792;DHT22;3433;48.730;9.108;2023-05-01T01:24:27;11.30;99.90
6792;DHT22;3433;48.730;9.108;2023-05-01T01:30:17;11.30;99.90
6792;DHT22;3433;48.730;9.108;2023-05-01T01:33:04;11.20;99.90
6792;DHT22;3433;48.730;9.108;2023-05-01T01:36:01;11.20;99.90
6792;DHT22;3433;48.730;9.108;2023-05-01T01:38:53;11.20;99.90
6792;DHT22;3433;48.730;9.108;2023-05-01T01:41:48;11.20;99.90
6792;DHT22;3433;48.730;9.108;2023-05-01T01:44:21;11.20;99.90
6792;DHT22;3433;48.730;9.108;2023-05-01T01:46:50;11.20;99.90
6792;DHT22;3433;48.730;9.108;2023-05-01T01:49:20;11.30;99.90
6792;DHT22;3433;48.730;9.108;2023-05-01T01:51:51;11.30;99.90
6792;DHT22;3433;48.730;9.108;2023-05-01T01:54:24;11.30;99.90
6792;DHT22;3433;48.730;9.108;2023-05-01T01:56:52;11.20;99.90
6792;DHT22;3433;48.730;9.108;2023-05-01T01:59:22;11.30;99.90
6792;DHT22;3433;48.730;9.108;2023-05-01T02:01:52;11.30;99.90
6792;DHT22;3433;48.730;9.108;2023-05-01T02:04:22;11.30;99.90
6792;DHT22;3433;48.730;9.108;2023-05-01T02:06:53;11.30;99.90
6792;DHT22;3433;48.730;9.108;2023-05-01T02:09:22;11.30;99.90
6792;DHT22;3433;48.730;9.108;2023-05-01T02:11:52;11.40;99.90
6792;DHT22;3433;48.730;9.108;2023-05-01T02:14:21;11.40;99.90
6792;DHT22;3433;48.730;9.108;2023-05-01T02:16:49;11.50;99.90
6792;DHT22;3433;48.730;9.108;2023-05-01T02:19:17;11.40;99.90
6792;DHT22;3433;48.730;9.108;2023-05-01T02:21:45;11.40;99.90
6792;DHT22;3433;48.730;9.108;2023-05-01T02:24:14;11.40;99.90
6792;DHT22;3433;48.730;9.108;2023-05-01T02:26:42;11.40;99.90
6792;DHT22;3433;48.730;9.108;2023-05-01T02:29:12;11.50;99.90
6792;DHT22;3433;48.730;9.108;2023-05-01T02:31:39;11.50;99.90
6792;DHT22;3433;48.730;9.108;2023-05-01T02:34:06;11.50;99.90
6792;DHT22;3433;48.730;9.108;2023-05-01T02:36:33;11.50;99.90
6792;DHT22;3433;48.730;9.108;2023-05-01T02:39:00;11.60;99.90
6792;DHT22;3433;48.730;9.108;2023-05-01T02:41:30;11.60;99.90
6792;DHT22;3433;48.730;9.108;2023-05-01T02:44:01;11.50;99.90
6792;DHT22;3433;48.730;9.108;2023-05-01T02:46:30;11.60;99.90
6792;DHT22;3433;48.730;9.108;2023-05-01T02:49:00;11.60;99.90
6792;DHT22;3433;48.730;9.108;2023-05-01T02:51:28;11.60;99.90
6792;DHT22;3433;48.730;9.108;2023-05-01T02:53:56;11.60;99.90
6792;DHT22;3433;48.730;9.108;2023-05-01T02:56:24;11.70;99.90
6792;DHT22;3433;48.730;9.108;2023-05-01T02:58:54;11.70;99.90
6792;DHT22;3433;48.730;9.108;2023-05-01T03:01:22;11.70;99.90
6792;DHT22;3433;48.730;9.108;2023-05-01T03:03:49;11.70;99.90
6792;DHT22;3433;48.730;9.108;2023-05-01T03:06:16;11.70;99.90
6792;DHT22;3433;48.730;9.108;2023-05-01T03:08:44;11.80;99.90
6792;DHT22;3433;48.730;9.108;2023-05-01T03:11:12;11.80;99.90
6792;DHT22;3433;48.730;9.108;2023-05-01T03:13:39;11.80;99.90
6792;DHT22;3433;48.730;9.108;2023-05-01T03:16:07;11.70;99.90
6792;DHT22;3433;48.730;9.108;2023-05-01T03:18:34;11.70;99.90
6792;DHT22;3433;48.730;9.108;2023-05-01T03:21:04;11.70;99.90
6792;DHT22;3433;48.730;9.108;2023-05-01T03:23:31;11.80;99.90
6792;DHT22;3433;48.730;9.108;2023-05-01T03:25:58;11.80;99.90
6792;DHT22;3433;48.730;9.108;2023-05-01T03:28:24;11.80;99.90
6792;DHT22;3433;48.730;9.108;2023-05-01T03:30:52;11.80;99.90
6792;DHT22;3433;48.730;9.108;2023-05-01T03:33:21;11.80;99.90
6792;DHT22;3433;48.730;9.108;2023-05-01T03:35:47;11.80;99.90
6792;DHT22;3433;48.730;9.108;2023-05-01T03:38:14;11.80;99.90
6792;DHT22;3433;48.730;9.108;2023-05-01T03:40:41;11.70;99.90
6792;DHT22;3433;48.730;9.108;2023-05-01T03:43:08;11.70;99.90
6792;DHT22;3433;48.730;9.108;2023-05-01T03:45:35;11.70;99.90
6792;DHT22;3433;48.730;9.108;2023-05-01T03:48:02;11.70;99.90
6792;DHT22;3433;48.730;9.108;2023-05-01T03:50:31;11.70;99.90
6792;DHT22;3433;48.730;9.108;2023-05-01T03:52:58;11.70;99.90
6792;DHT22;3433;48.730;9.108;2023-05-01T03:55:24;11.70;99.90
6792;DHT22;3433;48.730;9.108;2023-05-01T03:57:51;11.70;99.90
6792;DHT22;3433;48.730;9.108;2023-05-01T04:00:18;11.70;99.90
6792;DHT22;3433;48.730;9.108;2023-05-01T04:02:45;11.80;99.90
6792;DHT22;3433;48.730;9.108;2023-05-01T04:05:13;11.80;99.90
6792;DHT22;3433;48.730;9.108;2023-05-01T04:07:41;11.80;99.90
6792;DHT22;3433;48.730;9.108;2023-05-01T04:10:08;11.80;99.90
6792;DHT22;3433;48.730;9.108;2023-05-01T04:12:35;11.80;99.90
6792;DHT22;3433;48.730;9.108;2023-05-01T04:15:03;11.80;99.90
6792;DHT22;3433;48.730;9.108;2023-05-01T04:17:30;11.80;99.90
6792;DHT22;3433;48.730;9.108;2023-05-01T04:19:57;11.80;99.90
6792;DHT22;3433;48.730;9.108;2023-05-01T04:22:25;11.90;99.90
6792;DHT22;3433;48.730;9.108;2023-05-01T04:24:53;11.90;99.90
6792;DHT22;3433;48.730;9.108;2023-05-01T04:27:20;12.00;99.90
6792;DHT22;3433;48.730;9.108;2023-05-01T04:29:47;11.90;99.90
6792;DHT22;3433;48.730;9.108;2023-05-01T04:32:14;11.90;99.90
6792;DHT22;3433;48.730;9.108;2023-05-01T04:34:41;11.90;99.90
6792;DHT22;3433;48.730;9.108;2023-05-01T04:37:09;12.00;99.90
6792;DHT22;3433;48.730;9.108;2023-05-01T04:39:36;12.00;99.90
6792;DHT22;3433;48.730;9.108;2023-05-01T04:42:05;12.00;99.90
6792;DHT22;3433;48.730;9.108;2023-05-01T04:44:31;12.00;99.90
6792;DHT22;3433;48.730;9.108;2023-05-01T04:47:00;12.00;99.90
6792;DHT22;3433;48.730;9.108;2023-05-01T04:49:27;12.00;99.90
6792;DHT22;3433;48.730;9.108;2023-05-01T04:51:54;12.00;99.90
6792;DHT22;3433;48.730;9.108;2023-05-01T04:54:21;12.00;99.90
6792;DHT22;3433;48.730;9.108;2023-05-01T04:56:49;12.10;99.90
6792;DHT22;3433;48.730;9.108;2023-05-01T04:59:17;12.10;99.90
6792;DHT22;3433;48.730;9.108;2023-05-01T05:01:44;12.00;99.90
6792;DHT22;3433;48.730;9.108;2023-05-01T05:04:11;12.10;99.90
6792;DHT22;3433;48.730;9.108;2023-05-01T05:06:38;12.10;99.90
6792;DHT22;3433;48.730;9.108;2023-05-01T05:09:05;12.10;99.90
6792;DHT22;3433;48.730;9.108;2023-05-01T05:11:32;12.10;99.90
6792;DHT22;3433;48.730;9.108;2023-05-01T05:13:59;12.20;99.90
6792;DHT22;3433;48.730;9.108;2023-05-01T05:16:27;12.10;99.90
6792;DHT22;3433;48.730;9.108;2023-05-01T05:18:54;12.20;99.90
6792;DHT22;3433;48.730;9.108;2023-05-01T05:21:22;12.30;99.90
6792;DHT22;3433;48.730;9.108;2023-05-01T05:23:49;12.20;99.90
6792;DHT22;3433;48.730;9.108;2023-05-01T05:26:16;12.20;99.90
6792;DHT22;3433;48.730;9.108;2023-05-01T05:28:43;12.20;99.90
6792;DHT22;3433;48.730;9.108;2023-05-01T05:31:10;12.20;99.90
6792;DHT22;3433;48.730;9.108;2023-05-01T05:33:38;12.20;99.90
6792;DHT22;3433;48.730;9.108;2023-05-01T05:36:05;12.20;99.90
6792;DHT22;3433;48.730;9.108;2023-05-01T05:38:32;12.20;99.90
6792;DHT22;3433;48.730;9.108;2023-05-01T05:40:59;12.20;99.90
6792;DHT22;3433;48.730;9.108;2023-05-01T05:43:26;12.30;99.90
6792;DHT22;3433;48.730;9.108;2023-05-01T05:45:56;12.30;99.90
6792;DHT22;3433;48.730;9.108;2023-05-01T05:48:23;12.30;99.90
6792;DHT22;3433;48.730;9.108;2023-05-01T05:50:51;12.30;99.90
6792;DHT22;3433;48.730;9.108;2023-05-01T05:53:18;12.30;99.90
6792;DHT22;3433;48.730;9.108;2023-05-01T05:55:45;12.40;99.90
6792;DHT22;3433;48.730;9.108;2023-05-01T05:58:12;12.50;99.90
6792;DHT22;3433;48.730;9.108;2023-05-01T06:00:45;12.50;99.90
6792;DHT22;3433;48.730;9.108;2023-05-01T06:03:12;12.50;99.90
6792;DHT22;3433;48.730;9.108;2023-05-01T06:05:39;12.50;99.90
6792;DHT22;3433;48.730;9.108;2023-05-01T06:08:07;12.40;99.90
6792;DHT22;3433;48.730;9.108;2023-05-01T06:10:35;12.40;99.90
6792;DHT22;3433;48.730;9.108;2023-05-01T06:13:04;12.50;99.90
6792;DHT22;3433;48.730;9.108;2023-05-01T06:15:30;12.50;99.90
6792;DHT22;3433;48.730;9.108;2023-05-01T06:17:58;12.50;99.90
6792;DHT22;3433;48.730;9.108;2023-05-01T06:20:25;12.50;99.90
6792;DHT22;3433;48.730;9.108;2023-05-01T06:22:52;12.50;99.90
6792;DHT22;3433;48.730;9.108;2023-05-01T06:25:20;12.50;99.90
6792;DHT22;3433;48.730;9.108;2023-05-01T06:27:47;12.60;99.90
6792;DHT22;3433;48.730;9.108;2023-05-01T06:30:14;12.60;99.90
6792;DHT22;3433;48.730;9.108;2023-05-01T06:32:41;12.60;99.90
6792;DHT22;3433;48.730;9.108;2023-05-01T06:35:08;12.60;99.90
6792;DHT22;3433;48.730;9.108;2023-05-01T06:37:35;12.60;99.90
6792;DHT22;3433;48.730;9.108;2023-05-01T06:40:07;12.60;99.90
6792;DHT22;3433;48.730;9.108;2023-05-01T06:42:36;12.60;99.90
6792;DHT22;3433;48.730;9.108;2023-05-01T06:45:04;12.70;99.90
6792;DHT22;3433;48.730;9.108;2023-05-01T06:47:31;12.70;99.90
6792;DHT22;3433;48.730;9.108;2023-05-01T06:49:58;12.70;99.90
6792;DHT22;3433;48.730;9.108;2023-05-01T06:52:25;12.70;99.90
6792;DHT22;3433;48.730;9.108;2023-05-01T06:54:52;12.70;99.90
6792;DHT22;3433;48.730;9.108;2023-05-01T06:57:18;12.70;99.90
6792;DHT22;3433;48.730;9.108;2023-05-01T06:59:47;12.70;99.90
6792;DHT22;3433;48.730;9.108;2023-05-01T07:02:14;12.80;99.90
6792;DHT22;3433;48.730;9.108;2023-05-01T07:04:40;12.80;99.90
6792;DHT22;3433;48.730;9.108;2023-05-01T07:07:08;12.80;99.90
6792;DHT22;3433;48.730;9.108;2023-05-01T07:09:35;12.80;99.90
6792;DHT22;3433;48.730;9.108;2023-05-01T07:12:04;12.80;99.90
6792;DHT22;3433;48.730;9.108;2023-05-01T07:14:31;12.80;99.90
6792;DHT22;3433;48.730;9.108;2023-05-01T07:16:59;12.80;99.90
6792;DHT22;3433;48.730;9.108;2023-05-01T07:19:26;12.90;99.90
6792;DHT22;3433;48.730;9.108;2023-05-01T07:21:53;13.20;99.90
6792;DHT22;3433;48.730;9.108;2023-05-01T07:24:20;13.20;99.90
6792;DHT22;3433;48.730;9.108;2023-05-01T07:26:47;13.40;99.90
6792;DHT22;3433;48.730;9.108;2023-05-01T07:29:14;13.40;99.90
6792;DHT22;3433;48.730;9.108;2023-05-01T07:31:41;13.50;99.90
6792;DHT22;3433;48.730;9.108;2023-05-01T07:34:09;13.60;99.90
6792;DHT22;3433;48.730;9.108;2023-05-01T07:36:36;13.60;99.90
6792;DHT22;3433;48.730;9.108;2023-05-01T07:39:03;13.70;99.90
6792;DHT22;3433;48.730;9.108;2023-05-01T07:41:31;13.70;99.90
6792;DHT22;3433;48.730;9.108;2023-05-01T07:43:58;13.70;99.90
6792;DHT22;3433;48.730;9.108;2023-05-01T07:46:25;13.70;99.90
6792;DHT22;3433;48.730;9.108;2023-05-01T07:48:52;13.60;99.90
6792;DHT22;3433;48.730;9.108;2023-05-01T07:51:20;13.60;99.90
6792;DHT22;3433;48.730;9.108;2023-05-01T07:53:47;13.70;99.90
6792;DHT22;3433;48.730;9.108;2023-05-01T07:56:15;13.70;99.90
6792;DHT22;3433;48.730;9.108;2023-05-01T07:58:42;13.70;99.90
6792;DHT22;3433;48.730;9.108;2023-05-01T08:01:09;13.80;99.90
6792;DHT22;3433;48.730;9.108;2023-05-01T08:03:36;13.80;99.90
6792;DHT22;3433;48.730;9.108;2023-05-01T08:06:03;13.90;99.90
6792;DHT22;3433;48.730;9.108;2023-05-01T08:08:31;14.00;99.90
6792;DHT22;3433;48.730;9.108;2023-05-01T08:10:58;14.00;99.90
6792;DHT22;3433;48.730;9.108;2023-05-01T08:13:25;14.10;99.90
6792;DHT22;3433;48.730;9.108;2023-05-01T08:15:52;14.00;99.90
6792;DHT22;3433;48.730;9.108;2023-05-01T08:18:39;13.90;99.90
6792;DHT22;3433;48.730;9.108;2023-05-01T08:21:26;14.00;99.90
6792;DHT22;3433;48.730;9.108;2023-05-01T08:24:15;14.00;99.90
6792;DHT22;3433;48.730;9.108;2023-05-01T08:27:02;14.00;99.90
6792;DHT22;3433;48.730;9.108;2023-05-01T08:29:50;14.10;99.90
6792;DHT22;3433;48.730;9.108;2023-05-01T08:32:37;14.20;99.90
6792;DHT22;3433;48.730;9.108;2023-05-01T08:35:24;14.20;99.90
6792;DHT22;3433;48.730;9.108;2023-05-01T08:38:11;14.20;99.90
6792;DHT22;3433;48.730;9.108;2023-05-01T08:41:00;14.30;99.90
6792;DHT22;3433;48.730;9.108;2023-05-01T08:43:48;14.40;99.90
6792;DHT22;3433;48.730;9.108;2023-05-01T08:46:43;14.50;99.90
6792;DHT22;3433;48.730;9.108;2023-05-01T08:49:32;14.50;99.90
6792;DHT22;3433;48.730;9.108;2023-05-01T08:52:21;14.70;99.90
6792;DHT22;3433;48.730;9.108;2023-05-01T08:55:12;14.60;99.90
6792;DHT22;3433;48.730;9.108;2023-05-01T08:58:02;14.70;99.90
6792;DHT22;3433;48.730;9.108;2023-05-01T09:00:50;14.80;99.90
6792;DHT22;3433;48.730;9.108;2023-05-01T09:03:37;15.00;99.90
6792;DHT22;3433;48.730;9.108;2023-05-01T09:06:24;15.00;99.90
6792;DHT22;3433;48.730;9.108;2023-05-01T09:09:13;14.90;99.90
6792;DHT22;3433;48.730;9.108;2023-05-01T09:12:08;15.10;99.90
6792;DHT22;3433;48.730;9.108;2023-05-01T09:14:58;15.10;99.90
6792;DHT22;3433;48.730;9.108;2023-05-01T09:17:46;15.10;99.90
6792;DHT22;3433;48.730;9.108;2023-05-01T09:20:35;15.20;99.90
6792;DHT22;3433;48.730;9.108;2023-05-01T09:23:23;15.20;99.90
6792;DHT22;3433;48.730;9.108;2023-05-01T09:26:10;15.30;99.90
6792;DHT22;3433;48.730;9.108;2023-05-01T09:28:57;15.40;99.90
6792;DHT22;3433;48.730;9.108;2023-05-01T09:31:46;15.50;99.90
6792;DHT22;3433;48.730;9.108;2023-05-01T09:34:33;15.70;99.90
6792;DHT22;3433;48.730;9.108;2023-05-01T09:37:25;15.90;99.90
6792;DHT22;3433;48.730;9.108;2023-05-01T09:40:15;16.10;99.90
6792;DHT22;3433;48.730;9.108;2023-05-01T09:43:02;16.10;99.90
6792;DHT22;3433;48.730;9.108;2023-05-01T09:45:59;16.10;99.90
6792;DHT22;3433;48.730;9.108;2023-05-01T09:48:54;16.20;99.90
6792;DHT22;3433;48.730;9.108;2023-05-01T09:51:41;16.30;99.90
6792;DHT22;3433;48.730;9.108;2023-05-01T09:54:29;16.30;99.90
6792;DHT22;3433;48.730;9.108;2023-05-01T09:57:16;16.40;99.90
6792;DHT22;3433;48.730;9.108;2023-05-01T10:00:20;16.50;99.90
6792;DHT22;3433;48.730;9.108;2023-05-01T10:03:12;16.60;99.90
6792;DHT22;3433;48.730;9.108;2023-05-01T10:06:01;16.60;99.90
6792;DHT22;3433;48.730;9.108;2023-05-01T10:08:49;16.50;99.90
6792;DHT22;3433;48.730;9.108;2023-05-01T10:11:49;16.50;99.90
6792;DHT22;3433;48.730;9.108;2023-05-01T10:14:49;16.60;99.90
6792;DHT22;3433;48.730;9.108;2023-05-01T10:17:38;16.70;99.80
6792;DHT22;3433;48.730;9.108;2023-05-01T10:20:25;16.90;99.90
6792;DHT22;3433;48.730;9.108;2023-05-01T10:23:14;16.90;99.90
6792;DHT22;3433;48.730;9.108;2023-05-01T10:26:01;17.10;99.90
6792;DHT22;3433;48.730;9.108;2023-05-01T10:28:50;17.20;99.90
6792;DHT22;3433;48.730;9.108;2023-05-01T10:31:37;17.40;99.90
6792;DHT22;3433;48.730;9.108;2023-05-01T10:34:24;17.40;99.90
6792;DHT22;3433;48.730;9.108;2023-05-01T10:37:17;17.40;99.40
6792;DHT22;3433;48.730;9.108;2023-05-01T10:40:49;17.60;99.90
6792;DHT22;3433;48.730;9.108;2023-05-01T10:43:36;17.80;99.90
6792;DHT22;3433;48.730;9.108;2023-05-01T10:46:26;18.10;99.90
6792;DHT22;3433;48.730;9.108;2023-05-01T10:49:14;18.00;99.90
6792;DHT22;3433;48.730;9.108;2023-05-01T10:52:02;17.70;99.20
6792;DHT22;3433;48.730;9.108;2023-05-01T10:54:49;17.70;99.90
6792;DHT22;3433;48.730;9.108;2023-05-01T10:57:44;17.50;99.90
6792;DHT22;3433;48.730;9.108;2023-05-01T11:00:31;17.60;99.90
6792;DHT22;3433;48.730;9.108;2023-05-01T11:03:35;17.50;99.90
6792;DHT22;3433;48.730;9.108;2023-05-01T11:06:25;17.50;99.90
6792;DHT22;3433;48.730;9.108;2023-05-01T11:09:34;17.40;99.90
6792;DHT22;3433;48.730;9.108;2023-05-01T11:12:48;17.30;99.90
6792;DHT22;3433;48.730;9.108;2023-05-01T11:15:39;17.20;99.90
6792;DHT22;3433;48.730;9.108;2023-05-01T11:18:44;17.10;99.90
6792;DHT22;3433;48.730;9.108;2023-05-01T11:21:32;17.00;99.90
6792;DHT22;3433;48.730;9.108;2023-05-01T11:24:19;17.00;99.90
6792;DHT22;3433;48.730;9.108;2023-05-01T11:27:16;17.00;99.90
6792;DHT22;3433;48.730;9.108;2023-05-01T11:30:06;16.80;99.90
6792;DHT22;3433;48.730;9.108;2023-05-01T11:32:53;16.80;99.90
6792;DHT22;3433;48.730;9.108;2023-05-01T11:35:41;16.70;99.90
6792;DHT22;3433;48.730;9.108;2023-05-01T11:38:28;16.70;99.90
6792;DHT22;3433;48.730;9.108;2023-05-01T11:41:19;16.50;99.90
6792;DHT22;3433;48.730;9.108;2023-05-01T11:44:06;16.50;99.90
6792;DHT22;3433;48.730;9.108;2023-05-01T11:46:56;16.40;99.90
6792;DHT22;3433;48.730;9.108;2023-05-01T11:49:51;16.40;99.90
6792;DHT22;3433;48.730;9.108;2023-05-01T11:52:43;16.30;99.90
6792;DHT22;3433;48.730;9.108;2023-05-01T11:55:31;16.40;99.90
6792;DHT22;3433;48.730;9.108;2023-05-01T11:58:30;16.50;99.90
6792;DHT22;3433;48.730;9.108;2023-05-01T12:01:18;16.30;99.90
6792;DHT22;3433;48.730;9.108;2023-05-01T12:04:07;16.20;99.90
6792;DHT22;3433;48.730;9.108;2023-05-01T12:06:54;16.30;99.90
6792;DHT22;3433;48.730;9.108;2023-05-01T12:09:41;16.30;99.90
6792;DHT22;3433;48.730;9.108;2023-05-01T12:12:29;16.20;99.90
6792;DHT22;3433;48.730;9.108;2023-05-01T12:15:16;16.20;99.90
6792;DHT22;3433;48.730;9.108;2023-05-01T12:18:04;16.40;99.90
6792;DHT22;3433;48.730;9.108;2023-05-01T12:20:53;16.40;99.90
6792;DHT22;3433;48.730;9.108;2023-05-01T12:23:41;16.40;99.90
6792;DHT22;3433;48.730;9.108;2023-05-01T12:26:28;16.40;99.90
6792;DHT22;3433;48.730;9.108;2023-05-01T12:29:15;16.50;99.90
6792;DHT22;3433;48.730;9.108;2023-05-01T12:32:02;16.60;99.90
6792;DHT22;3433;48.730;9.108;2023-05-01T12:34:49;16.50;99.90
6792;DHT22;3433;48.730;9.108;2023-05-01T12:37:39;16.60;99.90
6792;DHT22;3433;48.730;9.108;2023-05-01T12:40:27;16.60;99.90
6792;DHT22;3433;48.730;9.108;2023-05-01T12:43:14;16.40;99.90
6792;DHT22;3433;48.730;9.108;2023-05-01T12:46:02;16.30;99.90
6792;DHT22;3433;48.730;9.108;2023-05-01T12:48:49;16.40;99.90
6792;DHT22;3433;48.730;9.108;2023-05-01T12:51:37;16.20;99.90
6792;DHT22;3433;48.730;9.108;2023-05-01T12:54:27;16.30;99.90
6792;DHT22;3433;48.730;9.108;2023-05-01T12:57:15;16.20;99.90
6792;DHT22;3433;48.730;9.108;2023-05-01T13:00:03;16.20;99.90
6792;DHT22;3433;48.730;9.108;2023-05-01T13:02:51;16.20;99.90
6792;DHT22;3433;48.730;9.108;2023-05-01T13:05:49;16.10;99.90
6792;DHT22;3433;48.730;9.108;2023-05-01T13:08:37;16.10;99.90
6792;DHT22;3433;48.730;9.108;2023-05-01T13:11:27;16.10;99.90
6792;DHT22;3433;48.730;9.108;2023-05-01T13:14:14;16.00;99.90
6792;DHT22;3433;48.730;9.108;2023-05-01T13:17:01;16.20;99.90
6792;DHT22;3433;48.730;9.108;2023-05-01T13:19:52;16.20;99.90
6792;DHT22;3433;48.730;9.108;2023-05-01T13:22:40;16.10;99.90
6792;DHT22;3433;48.730;9.108;2023-05-01T13:25:27;15.80;99.90
6792;DHT22;3433;48.730;9.108;2023-05-01T13:28:19;15.80;99.90
6792;DHT22;3433;48.730;9.108;2023-05-01T13:31:10;15.70;99.90
6792;DHT22;3433;48.730;9.108;2023-05-01T13:33:59;15.60;99.90
6792;DHT22;3433;48.730;9.108;2023-05-01T13:36:47;15.50;99.90
6792;DHT22;3433;48.730;9.108;2023-05-01T13:39:34;15.50;99.90
6792;DHT22;3433;48.730;9.108;2023-05-01T13:42:22;15.50;99.90
6792;DHT22;3433;48.730;9.108;2023-05-01T13:45:12;15.60;99.90
6792;DHT22;3433;48.730;9.108;2023-05-01T13:48:04;15.60;99.90
6792;DHT22;3433;48.730;9.108;2023-05-01T13:50:52;15.60;99.90
6792;DHT22;3433;48.730;9.108;2023-05-01T13:53:40;15.50;99.90
6792;DHT22;3433;48.730;9.108;2023-05-01T13:56:28;15.50;99.90
6792;DHT22;3433;48.730;9.108;2023-05-01T13:59:17;15.50;99.90
6792;DHT22;3433;48.730;9.108;2023-05-01T14:02:17;15.70;99.90
6792;DHT22;3433;48.730;9.108;2023-05-01T14:05:07;15.70;99.90
6792;DHT22;3433;48.730;9.108;2023-05-01T14:07:56;15.60;99.90
6792;DHT22;3433;48.730;9.108;2023-05-01T14:10:43;15.50;99.90
6792;DHT22;3433;48.730;9.108;2023-05-01T14:13:31;15.60;99.90
6792;DHT22;3433;48.730;9.108;2023-05-01T14:16:22;15.60;99.90
6792;DHT22;3433;48.730;9.108;2023-05-01T14:18:52;15.70;99.90
6792;DHT22;3433;48.730;9.108;2023-05-01T14:21:22;15.80;99.90
6792;DHT22;3433;48.730;9.108;2023-05-01T14:23:50;16.10;99.90
6792;DHT22;3433;48.730;9.108;2023-05-01T14:26:18;16.20;99.90
6792;DHT22;3433;48.730;9.108;2023-05-01T14:28:45;16.50;99.90
6792;DHT22;3433;48.730;9.108;2023-05-01T14:31:16;16.60;99.90
6792;DHT22;3433;48.730;9.108;2023-05-01T14:33:53;16.70;99.90
6792;DHT22;3433;48.730;9.108;2023-05-01T14:36:20;16.70;99.90
6792;DHT22;3433;48.730;9.108;2023-05-01T14:38:48;16.70;99.90
6792;DHT22;3433;48.730;9.108;2023-05-01T14:41:16;16.60;99.90
6792;DHT22;3433;48.730;9.108;2023-05-01T14:43:44;16.40;99.90
6792;DHT22;3433;48.730;9.108;2023-05-01T14:46:11;16.30;99.90
6792;DHT22;3433;48.730;9.108;2023-05-01T14:48:40;16.30;99.90
6792;DHT22;3433;48.730;9.108;2023-05-01T14:51:10;16.30;99.90
6792;DHT22;3433;48.730;9.108;2023-05-01T14:53:39;16.20;99.90
6792;DHT22;3433;48.730;9.108;2023-05-01T14:56:08;16.00;99.90
6792;DHT22;3433;48.730;9.108;2023-05-01T14:58:35;15.90;99.90
6792;DHT22;3433;48.730;9.108;2023-05-01T15:01:02;15.80;99.90
6792;DHT22;3433;48.730;9.108;2023-05-01T15:03:29;15.80;99.90
6792;DHT22;3433;48.730;9.108;2023-05-01T15:05:57;15.70;99.90
6792;DHT22;3433;48.730;9.108;2023-05-01T15:08:25;15.70;99.90
6792;DHT22;3433;48.730;9.108;2023-05-01T15:10:52;15.60;99.90
6792;DHT22;3433;48.730;9.108;2023-05-01T15:13:19;15.50;99.90
6792;DHT22;3433;48.730;9.108;2023-05-01T15:15:46;15.50;99.90
6792;DHT22;3433;48.730;9.108;2023-05-01T15:18:13;15.30;99.90
6792;DHT22;3433;48.730;9.108;2023-05-01T15:20:40;15.10;99.90
6792;DHT22;3433;48.730;9.108;2023-05-01T15:23:07;15.10;99.90
6792;DHT22;3433;48.730;9.108;2023-05-01T15:25:36;15.10;99.90
6792;DHT22;3433;48.730;9.108;2023-05-01T15:28:03;14.90;99.90
6792;DHT22;3433;48.730;9.108;2023-05-01T15:30:30;14.80;99.90
6792;DHT22;3433;48.730;9.108;2023-05-01T15:32:57;14.80;99.90
6792;DHT22;3433;48.730;9.108;2023-05-01T15:35:24;15.00;99.90
6792;DHT22;3433;48.730;9.108;2023-05-01T15:37:51;14.90;99.90
6792;DHT22;3433;48.730;9.108;2023-05-01T15:40:19;14.80;99.90
6792;DHT22;3433;48.730;9.108;2023-05-01T15:42:48;14.80;99.90
6792;DHT22;3433;48.730;9.108;2023-05-01T15:45:16;14.80;99.90
6792;DHT22;3433;48.730;9.108;2023-05-01T15:47:43;14.90;99.90
6792;DHT22;3433;48.730;9.108;2023-05-01T15:50:10;15.00;99.90
6792;DHT22;3433;48.730;9.108;2023-05-01T15:52:37;15.10;99.90
6792;DHT22;3433;48.730;9.108;2023-05-01T15:55:05;15.10;99.90
6792;DHT22;3433;48.730;9.108;2023-05-01T15:57:32;15.10;99.90
6792;DHT22;3433;48.730;9.108;2023-05-01T16:00:01;15.00;99.90
6792;DHT22;3433;48.730;9.108;2023-05-01T16:02:30;15.00;99.90
6792;DHT22;3433;48.730;9.108;2023-05-01T16:04:57;15.00;99.90
6792;DHT22;3433;48.730;9.108;2023-05-01T16:07:24;15.00;99.90
6792;DHT22;3433;48.730;9.108;2023-05-01T16:09:52;15.00;99.90
6792;DHT22;3433;48.730;9.108;2023-05-01T16:12:19;15.00;99.90
6792;DHT22;3433;48.730;9.108;2023-05-01T16:14:47;15.00;99.90
6792;DHT22;3433;48.730;9.108;2023-05-01T16:17:16;15.00;99.90
6792;DHT22;3433;48.730;9.108;2023-05-01T16:19:44;15.00;99.90
6792;DHT22;3433;48.730;9.108;2023-05-01T16:22:11;15.00;99.90
6792;DHT22;3433;48.730;9.108;2023-05-01T16:24:40;15.10;99.90
6792;DHT22;3433;48.730;9.108;2023-05-01T16:27:10;15.10;99.90
6792;DHT22;3433;48.730;9.108;2023-05-01T16:29:38;15.00;99.90
6792;DHT22;3433;48.730;9.108;2023-05-01T16:32:06;15.00;99.90
6792;DHT22;3433;48.730;9.108;2023-05-01T16:34:38;15.00;99.90
6792;DHT22;3433;48.730;9.108;2023-05-01T16:37:05;15.00;99.90
6792;DHT22;3433;48.730;9.108;2023-05-01T16:39:34;14.90;99.90
6792;DHT22;3433;48.730;9.108;2023-05-01T16:42:02;15.00;99.90
6792;DHT22;3433;48.730;9.108;2023-05-01T16:44:29;15.00;99.90
6792;DHT22;3433;48.730;9.108;2023-05-01T16:46:57;15.00;99.90
6792;DHT22;3433;48.730;9.108;2023-05-01T16:49:25;14.90;99.90
6792;DHT22;3433;48.730;9.108;2023-05-01T16:51:54;14.80;99.90
6792;DHT22;3433;48.730;9.108;2023-05-01T16:54:23;14.70;99.90
6792;DHT22;3433;48.730;9.108;2023-05-01T16:56:51;14.80;99.90
6792;DHT22;3433;48.730;9.108;2023-05-01T16:59:18;14.70;99.90